ΕΜΥ, Εθνική Μετεωρολογική Υπηρεσία - Δελτία Καιρού, Προγνώσεις

ΑΕΡΟΝΑΥΤΙΛΙΑ

GREEK AIRPORTS CODES

LGLR 171250Z 01004KT 9999 FEW025TCU SCT030 31/15 Q1012 RMK SCT080 FEW180=

EUROPEAN AIRPORTS CODES

LFPO 171230Z VRB03KT CAVOK 24/12 Q1018 NOSIG=